createdAt,value
2023-04-26T00:04:16.192Z,99581.30
2023-04-26T00:09:19.714Z,99578.63
2023-04-26T00:14:21.248Z,99576.07
2023-04-26T00:19:24.342Z,99570.42
2023-04-26T00:24:25.980Z,99569.88
2023-04-26T00:29:27.557Z,99577.10
2023-04-26T00:34:38.754Z,99584.80
2023-04-26T00:39:40.293Z,99592.64
2023-04-26T00:44:42.508Z,99588.34
2023-04-26T00:49:44.417Z,99593.05
2023-04-26T00:54:46.205Z,99590.16
2023-04-26T00:59:48.770Z,99598.75
2023-04-26T01:04:50.674Z,99592.65
2023-04-26T01:09:52.692Z,99597.35
2023-04-26T01:14:55.268Z,99607.08
2023-04-26T01:19:57.222Z,99611.48
2023-04-26T01:25:01.624Z,99613.30
2023-04-26T01:30:03.742Z,99618.03
2023-04-26T01:35:07.357Z,99632.91
2023-04-26T01:40:09.839Z,99631.05
2023-04-26T01:45:11.828Z,99631.89
2023-04-26T01:50:13.394Z,99638.34
2023-04-26T01:55:14.874Z,99646.65
2023-04-26T02:00:20.118Z,99646.48
2023-04-26T02:05:22.466Z,99654.11
2023-04-26T02:10:24.224Z,99655.41
2023-04-26T02:15:25.888Z,99656.70
2023-04-26T02:20:27.389Z,99663.41
2023-04-26T02:25:28.890Z,99662.84
2023-04-26T02:30:37.160Z,99657.73
2023-04-26T02:35:38.689Z,99659.00
2023-04-26T02:40:40.463Z,99659.89
2023-04-26T02:45:43.291Z,99663.14
2023-04-26T02:50:45.096Z,99665.85
2023-04-26T02:55:46.629Z,99671.94
2023-04-26T03:00:49.840Z,99672.85
2023-04-26T03:05:51.421Z,99675.27
2023-04-26T03:10:52.919Z,99671.09
2023-04-26T03:15:54.460Z,99674.89
2023-04-26T03:20:55.953Z,99675.23
2023-04-26T03:25:57.455Z,99678.71
2023-04-26T03:30:59.038Z,99680.14
2023-04-26T03:36:00.601Z,99682.79
2023-04-26T03:41:02.076Z,99682.98
2023-04-26T03:46:04.526Z,99683.84
2023-04-26T03:51:06.622Z,99684.50
2023-04-26T03:56:08.719Z,99689.98
2023-04-26T04:01:10.272Z,99694.11
2023-04-26T04:06:12.641Z,99694.87
2023-04-26T04:11:14.134Z,99697.11
2023-04-26T04:16:15.966Z,99701.50
2023-04-26T04:21:17.562Z,99704.77
2023-04-26T04:26:19.215Z,99705.59
2023-04-26T04:31:21.817Z,99709.17
2023-04-26T04:36:23.295Z,99710.33
2023-04-26T04:41:24.965Z,99719.61
2023-04-26T04:46:26.517Z,99721.60
2023-04-26T04:51:28.132Z,99728.79
2023-04-26T04:56:29.735Z,99732.25
2023-04-26T05:01:35.107Z,99733.16
2023-04-26T05:06:36.896Z,99736.77
2023-04-26T05:11:38.434Z,99738.98
2023-04-26T05:16:40.056Z,99745.61
2023-04-26T05:21:42.053Z,99752.91
2023-04-26T05:26:43.606Z,99768.36
2023-04-26T05:31:45.628Z,99771.56
2023-04-26T05:36:47.217Z,99770.88
2023-04-26T05:41:48.733Z,99768.45
2023-04-26T05:46:50.331Z,99777.45
2023-04-26T05:51:52.403Z,99775.73
2023-04-26T05:56:53.969Z,99782.36
2023-04-26T06:01:55.566Z,99784.08
2023-04-26T06:06:58.091Z,99784.65
2023-04-26T06:11:59.897Z,99784.81
2023-04-26T06:17:01.494Z,99793.95
2023-04-26T06:22:03.052Z,99794.30
2023-04-26T06:27:04.594Z,99796.63
2023-04-26T06:32:06.498Z,99801.98
2023-04-26T06:37:08.001Z,99799.23
2023-04-26T06:42:09.570Z,99796.86
2023-04-26T06:47:11.326Z,99800.98
2023-04-26T06:52:12.845Z,99800.36
2023-04-26T06:57:14.760Z,99802.38
2023-04-26T07:02:16.369Z,99795.05
2023-04-26T07:07:18.223Z,99798.87
2023-04-26T07:12:19.749Z,99794.76
2023-04-26T07:17:22.362Z,99801.86
2023-04-26T07:22:24.222Z,99802.90
2023-04-26T07:27:26.214Z,99807.42
2023-04-26T07:32:27.748Z,99812.11
2023-04-26T07:37:29.266Z,99812.73
2023-04-26T07:42:31.436Z,99819.55
2023-04-26T07:47:32.951Z,99826.40
2023-04-26T07:52:34.670Z,99836.23
2023-04-26T07:57:36.499Z,99832.04
2023-04-26T08:07:44.861Z,99838.09
2023-04-26T08:12:46.514Z,99840.44
2023-04-26T08:17:48.418Z,99842.13
2023-04-26T08:22:50.128Z,99854.52
2023-04-26T08:27:52.514Z,99844.35
2023-04-26T08:32:54.109Z,99838.92
2023-04-26T08:37:55.795Z,99845.91
2023-04-26T08:42:57.510Z,99845.65
2023-04-26T08:48:05.701Z,99861.25
2023-04-26T08:53:08.361Z,99864.58
2023-04-26T08:58:11.807Z,99864.64
2023-04-26T09:03:13.826Z,99858.83
2023-04-26T09:08:19.300Z,99862.67
2023-04-26T09:13:20.894Z,99868.98
2023-04-26T09:18:23.758Z,99866.05
2023-04-26T09:23:25.394Z,99872.55
2023-04-26T09:28:27.800Z,99868.63
2023-04-26T09:33:29.548Z,99871.08
2023-04-26T09:38:42.923Z,99869.65
2023-04-26T09:43:44.611Z,99875.86
2023-04-26T09:49:00.376Z,99874.36
2023-04-26T09:54:01.932Z,99874.14
2023-04-26T09:59:05.748Z,99885.63
2023-04-26T10:04:07.759Z,99888.96
2023-04-26T10:09:09.611Z,99880.77
2023-04-26T10:14:12.231Z,99886.89
2023-04-26T10:19:14.293Z,99895.09
2023-04-26T10:24:16.138Z,99885.30
2023-04-26T10:29:18.579Z,99881.61
2023-04-26T10:34:21.679Z,99883.15
2023-04-26T10:39:24.914Z,99903.45
2023-04-26T10:44:45.863Z,99900.85
2023-04-26T10:49:48.260Z,99908.98
2023-04-26T10:54:55.100Z,99913.59
2023-04-26T11:00:20.358Z,99903.02
2023-04-26T11:05:47.334Z,99908.68
2023-04-26T11:10:56.730Z,99908.67
2023-04-26T11:16:04.254Z,99908.35
2023-04-26T11:21:07.229Z,99909.00
2023-04-26T11:26:09.560Z,99917.51
2023-04-26T11:31:11.733Z,99922.77
2023-04-26T11:36:14.397Z,99916.66
2023-04-26T11:41:16.006Z,99938.00
2023-04-26T11:46:21.584Z,99943.49
2023-04-26T11:51:24.107Z,99940.22
2023-04-26T11:56:25.589Z,99941.73
2023-04-26T12:01:28.778Z,99944.53
2023-04-26T12:06:46.989Z,99948.30
2023-04-26T12:11:53.526Z,99950.52
2023-04-26T12:16:55.143Z,99946.55
2023-04-26T12:21:57.568Z,99950.75
2023-04-26T12:27:00.262Z,99970.17
2023-04-26T12:32:04.505Z,99968.95
2023-04-26T12:37:06.398Z,99972.51
2023-04-26T12:42:08.003Z,99981.21
2023-04-26T12:47:09.562Z,99983.73
2023-04-26T12:52:11.128Z,99991.13
2023-04-26T12:57:12.907Z,99993.56
2023-04-26T13:02:14.449Z,100005.12
2023-04-26T13:07:16.371Z,100004.38
2023-04-26T13:12:17.998Z,100010.20
2023-04-26T13:17:19.542Z,100001.74
2023-04-26T13:22:21.591Z,100007.39
2023-04-26T13:27:23.123Z,100007.89
2023-04-26T13:32:24.676Z,100017.84
2023-04-26T13:37:26.990Z,100018.34
2023-04-26T13:42:28.593Z,100018.93
2023-04-26T13:47:31.310Z,100025.90
2023-04-26T13:52:33.459Z,100027.39
2023-04-26T13:57:34.967Z,100027.18
2023-04-26T14:02:36.675Z,100033.42
2023-04-26T14:07:40.569Z,100030.26
2023-04-26T14:12:42.326Z,100036.84
2023-04-26T14:17:46.797Z,100045.73
2023-04-26T14:22:50.223Z,100047.95
2023-04-26T14:27:53.501Z,100050.61
2023-04-26T14:32:55.264Z,100060.52
2023-04-26T14:37:56.942Z,100060.61
2023-04-26T14:42:58.484Z,100072.20
2023-04-26T14:48:01.870Z,100069.88
2023-04-26T14:53:03.444Z,100070.16
2023-04-26T14:58:05.730Z,100069.39
2023-04-26T15:03:07.557Z,100070.55
2023-04-26T15:08:09.365Z,100079.25
2023-04-26T15:13:10.950Z,100082.83
2023-04-26T15:18:12.446Z,100083.48
2023-04-26T15:23:14.090Z,100085.27
2023-04-26T15:28:17.650Z,100086.60
2023-04-26T15:33:19.737Z,100088.32
2023-04-26T15:38:22.113Z,100093.80
2023-04-26T15:43:23.701Z,100102.41
2023-04-26T15:48:26.343Z,100101.49
2023-04-26T15:53:27.893Z,100103.11
2023-04-26T15:58:29.663Z,100104.50
2023-04-26T16:03:31.486Z,100104.56
2023-04-26T16:13:40.645Z,100110.98
2023-04-26T16:18:43.836Z,100119.67
2023-04-26T16:23:45.652Z,100125.02
2023-04-26T16:28:47.319Z,100129.62
2023-04-26T16:33:48.978Z,100134.73
2023-04-26T16:38:50.984Z,100135.04
2023-04-26T16:43:53.218Z,100142.25
2023-04-26T16:48:54.802Z,100138.77
2023-04-26T16:53:56.331Z,100138.44
2023-04-26T16:58:57.876Z,100141.79
2023-04-26T17:03:59.493Z,100149.08
2023-04-26T17:09:01.295Z,100149.55
2023-04-26T17:14:04.387Z,100152.89
2023-04-26T17:19:06.860Z,100156.49
2023-04-26T17:24:08.538Z,100160.13
2023-04-26T17:29:10.891Z,100163.40
2023-04-26T17:34:12.417Z,100165.52
2023-04-26T17:39:13.890Z,100168.30
2023-04-26T17:44:15.373Z,100173.50
2023-04-26T17:49:16.848Z,100177.16
2023-04-26T17:54:18.452Z,100181.14
2023-04-26T17:59:20.018Z,100190.79
2023-04-26T18:04:21.866Z,100193.40
2023-04-26T18:09:23.542Z,100197.25
2023-04-26T18:14:26.536Z,100200.58
2023-04-26T18:19:28.045Z,100206.64
2023-04-26T18:24:29.948Z,100210.27
2023-04-26T18:29:32.147Z,100216.99
2023-04-26T18:34:33.636Z,100221.67
2023-04-26T18:39:35.223Z,100216.58
2023-04-26T18:44:36.734Z,100223.48
2023-04-26T18:49:38.294Z,100231.23
2023-04-26T18:54:39.925Z,100237.61
2023-04-26T18:59:41.721Z,100242.92
2023-04-26T19:04:43.451Z,100250.52
2023-04-26T19:09:53.686Z,100250.05
2023-04-26T19:14:56.855Z,100252.48
2023-04-26T19:19:58.673Z,100249.45
2023-04-26T19:25:01.130Z,100258.09
2023-04-26T19:30:02.803Z,100259.31
2023-04-26T19:35:06.156Z,100257.83
2023-04-26T19:40:10.099Z,100261.17
2023-04-26T19:45:11.773Z,100262.98
2023-04-26T19:50:13.435Z,100263.56
2023-04-26T19:55:15.180Z,100264.35
2023-04-26T20:00:16.929Z,100261.36
2023-04-26T20:05:18.553Z,100263.52
2023-04-26T20:10:23.906Z,100259.02
2023-04-26T20:15:26.532Z,100262.52
2023-04-26T20:20:28.114Z,100269.92
2023-04-26T20:25:29.590Z,100274.05
2023-04-26T20:30:40.727Z,100276.67
2023-04-26T20:35:45.404Z,100279.63
2023-04-26T20:40:48.715Z,100277.95
2023-04-26T20:45:50.888Z,100282.77
2023-04-26T20:50:58.264Z,100282.11
2023-04-26T20:55:59.793Z,100282.33
2023-04-26T21:01:02.828Z,100286.79
2023-04-26T21:06:06.204Z,100290.61
2023-04-26T21:11:07.743Z,100292.36
2023-04-26T21:16:09.310Z,100295.47
2023-04-26T21:21:11.176Z,100299.27
2023-04-26T21:26:13.385Z,100304.56
2023-04-26T21:31:14.975Z,100310.21
2023-04-26T21:36:16.734Z,100307.16
2023-04-26T21:41:18.262Z,100315.34
2023-04-26T21:46:19.865Z,100318.58
2023-04-26T21:51:21.385Z,100324.39
2023-04-26T21:56:24.122Z,100329.66
2023-04-26T22:01:25.741Z,100334.27
2023-04-26T22:06:27.346Z,100344.14
2023-04-26T22:11:28.841Z,100342.26
2023-04-26T22:16:30.462Z,100347.19
2023-04-26T22:21:32.374Z,100350.06
2023-04-26T22:26:34.072Z,100354.48
2023-04-26T22:31:35.660Z,100357.70
2023-04-26T22:36:37.280Z,100357.85
2023-04-26T22:41:38.784Z,100361.58
2023-04-26T22:46:40.660Z,100362.41
2023-04-26T22:51:45.929Z,100364.27
2023-04-26T22:56:52.663Z,100368.34
2023-04-26T23:01:54.167Z,100370.19
2023-04-26T23:06:55.911Z,100379.38
2023-04-26T23:11:59.502Z,100386.34
2023-04-26T23:17:01.118Z,100391.27
2023-04-26T23:22:02.666Z,100392.75
2023-04-26T23:27:05.041Z,100394.95
2023-04-26T23:32:06.709Z,100399.86
2023-04-26T23:37:08.425Z,100399.14
2023-04-26T23:42:10.185Z,100404.72
2023-04-26T23:47:11.681Z,100410.13
2023-04-26T23:52:13.235Z,100411.80
2023-04-26T23:57:14.713Z,100414.66
